createdAt,value
2022-08-10T00:01:34.365Z,99.90
2022-08-10T00:04:01.504Z,99.90
2022-08-10T00:06:28.904Z,99.90
2022-08-10T00:08:55.917Z,99.90
2022-08-10T00:11:22.943Z,99.90
2022-08-10T00:13:50.364Z,99.90
2022-08-10T00:16:17.381Z,99.90
2022-08-10T00:18:44.122Z,99.90
2022-08-10T00:21:10.859Z,99.90
2022-08-10T00:23:38.250Z,99.90
2022-08-10T00:26:06.268Z,99.90
2022-08-10T00:28:33.373Z,99.90
2022-08-10T00:31:00.141Z,99.90
2022-08-10T00:33:27.017Z,99.90
2022-08-10T00:35:53.685Z,99.90
2022-08-10T00:38:20.548Z,99.90
2022-08-10T00:40:47.269Z,99.90
2022-08-10T00:43:13.966Z,99.90
2022-08-10T00:45:40.679Z,99.90
2022-08-10T00:48:07.440Z,99.90
2022-08-10T00:50:34.413Z,99.90
2022-08-10T00:53:01.608Z,99.90
2022-08-10T00:55:28.670Z,99.90
2022-08-10T00:57:55.885Z,99.90
2022-08-10T01:00:24.259Z,99.90
2022-08-10T01:02:51.134Z,99.90
2022-08-10T01:05:20.091Z,99.90
2022-08-10T01:08:19.367Z,99.90
2022-08-10T01:12:47.000Z,99.90
2022-08-10T01:14:04.823Z,99.90
2022-08-10T01:17:00.189Z,99.90
2022-08-10T01:20:01.225Z,99.90
2022-08-10T01:22:56.266Z,99.90
2022-08-10T01:26:10.375Z,99.90
2022-08-10T01:28:36.853Z,99.90
2022-08-10T01:31:07.324Z,99.90
2022-08-10T01:34:01.972Z,99.90
2022-08-10T01:36:34.755Z,99.90
2022-08-10T01:39:04.327Z,99.90
2022-08-10T01:41:46.846Z,99.90
2022-08-10T01:44:20.128Z,99.90
2022-08-10T01:46:56.806Z,99.90
2022-08-10T01:49:26.140Z,99.90
2022-08-10T01:52:00.310Z,99.90
2022-08-10T01:54:28.604Z,99.90
2022-08-10T01:56:58.121Z,99.90
2022-08-10T01:59:36.750Z,99.90
2022-08-10T02:02:06.293Z,99.90
2022-08-10T02:04:36.681Z,99.90
2022-08-10T02:07:06.223Z,99.90
2022-08-10T02:09:36.654Z,99.90
2022-08-10T02:12:08.768Z,99.90
2022-08-10T02:14:52.410Z,99.90
2022-08-10T02:18:00.902Z,99.90
2022-08-10T02:20:23.928Z,99.90
2022-08-10T02:22:58.200Z,99.90
2022-08-10T02:25:41.367Z,99.90
2022-08-10T02:28:29.763Z,99.90
2022-08-10T02:31:11.753Z,99.90
2022-08-10T02:33:56.207Z,99.90
2022-08-10T02:36:27.731Z,99.90
2022-08-10T02:39:00.715Z,99.90
2022-08-10T02:45:02.253Z,99.90
2022-08-10T02:45:25.475Z,99.90
2022-08-10T02:48:00.149Z,99.90
2022-08-10T02:50:36.393Z,99.90
2022-08-10T02:53:51.761Z,99.90
2022-08-10T02:56:08.040Z,99.90
2022-08-10T02:58:47.827Z,99.90
2022-08-10T03:01:20.160Z,99.90
2022-08-10T03:04:55.418Z,99.90
2022-08-10T03:07:15.041Z,99.90
2022-08-10T03:09:43.111Z,99.90
2022-08-10T03:12:36.326Z,99.90
2022-08-10T03:15:01.442Z,99.90
2022-08-10T03:17:29.643Z,99.90
2022-08-10T03:20:35.560Z,99.90
2022-08-10T03:22:46.189Z,99.90
2022-08-10T03:25:13.818Z,99.90
2022-08-10T03:27:44.540Z,99.90
2022-08-10T03:30:30.012Z,99.90
2022-08-10T03:33:00.286Z,99.90
2022-08-10T03:35:27.952Z,99.90
2022-08-10T03:37:59.887Z,99.90
2022-08-10T03:40:45.798Z,99.90
2022-08-10T03:43:20.275Z,99.90
2022-08-10T03:45:54.823Z,99.90
2022-08-10T03:48:24.697Z,99.90
2022-08-10T03:51:01.230Z,99.90
2022-08-10T03:54:04.638Z,99.90
2022-08-10T03:56:29.197Z,99.90
2022-08-10T03:58:58.283Z,99.90
2022-08-10T04:02:46.665Z,99.90
2022-08-10T04:04:16.515Z,99.90
2022-08-10T04:06:46.027Z,99.90
2022-08-10T04:09:12.704Z,99.90
2022-08-10T04:11:40.766Z,99.90
2022-08-10T04:14:07.943Z,99.90
2022-08-10T04:16:54.799Z,99.90
2022-08-10T04:19:22.987Z,99.90
2022-08-10T04:22:02.667Z,99.90
2022-08-10T04:24:33.914Z,99.90
2022-08-10T04:27:01.845Z,99.90
2022-08-10T04:29:29.188Z,99.90
2022-08-10T04:31:55.913Z,99.90
2022-08-10T04:34:24.271Z,99.90
2022-08-10T04:36:53.299Z,99.90
2022-08-10T04:39:21.785Z,99.90
2022-08-10T04:41:48.706Z,99.90
2022-08-10T04:44:15.907Z,99.90
2022-08-10T04:46:58.024Z,99.90
2022-08-10T04:49:55.728Z,99.90
2022-08-10T04:52:12.139Z,99.90
2022-08-10T04:54:39.109Z,99.90
2022-08-10T04:57:06.402Z,99.90
2022-08-10T04:59:33.261Z,99.90
2022-08-10T05:02:22.066Z,99.90
2022-08-10T05:04:46.673Z,99.90
2022-08-10T05:07:17.203Z,99.90
2022-08-10T05:10:01.557Z,99.90
2022-08-10T05:12:32.770Z,99.90
2022-08-10T05:15:03.041Z,99.90
2022-08-10T05:17:29.795Z,99.90
2022-08-10T05:20:02.999Z,99.90
2022-08-10T05:22:32.494Z,99.90
2022-08-10T05:24:59.174Z,99.90
2022-08-10T05:27:25.840Z,99.90
2022-08-10T05:30:02.060Z,99.90
2022-08-10T05:32:56.435Z,99.90
2022-08-10T05:35:21.197Z,99.90
2022-08-10T05:38:13.490Z,99.90
2022-08-10T05:40:39.209Z,99.90
2022-08-10T05:43:06.194Z,99.90
2022-08-10T05:45:32.885Z,99.90
2022-08-10T05:48:58.223Z,99.90
2022-08-10T05:50:46.777Z,99.90
2022-08-10T05:54:03.063Z,99.90
2022-08-10T05:56:01.895Z,99.90
2022-08-10T05:58:28.555Z,99.90
2022-08-10T06:00:57.137Z,99.90
2022-08-10T06:03:29.621Z,99.90
2022-08-10T06:05:58.212Z,99.90
2022-08-10T06:08:31.282Z,99.90
2022-08-10T06:12:28.209Z,99.90
2022-08-10T06:14:13.626Z,99.90
2022-08-10T06:16:44.339Z,99.90
2022-08-10T06:19:15.072Z,99.90
2022-08-10T06:22:00.344Z,99.90
2022-08-10T06:24:30.913Z,99.90
2022-08-10T06:27:01.193Z,99.90
2022-08-10T06:29:31.947Z,99.90
2022-08-10T06:32:00.939Z,99.90
2022-08-10T06:34:35.353Z,99.90
2022-08-10T06:37:04.355Z,99.90
2022-08-10T06:39:34.462Z,99.90
2022-08-10T06:42:16.573Z,99.90
2022-08-10T06:45:04.649Z,99.90
2022-08-10T06:47:48.948Z,99.90
2022-08-10T06:50:45.125Z,99.90
2022-08-10T06:53:18.894Z,99.90
2022-08-10T06:55:56.545Z,99.90
2022-08-10T06:58:29.059Z,99.90
2022-08-10T07:00:56.763Z,99.90
2022-08-10T07:03:30.587Z,99.90
2022-08-10T07:05:59.711Z,99.90
2022-08-10T07:08:31.319Z,99.90
2022-08-10T07:10:58.372Z,99.90
2022-08-10T07:14:15.696Z,99.90
2022-08-10T07:16:14.567Z,99.90
2022-08-10T07:18:43.068Z,99.90
2022-08-10T07:21:10.349Z,99.90
2022-08-10T07:23:57.273Z,99.90
2022-08-10T07:26:27.116Z,99.90
2022-08-10T07:28:54.898Z,99.90
2022-08-10T07:31:31.080Z,99.90
2022-08-10T11:04:58.982Z,90.50
2022-08-10T11:07:40.173Z,87.30
2022-08-10T11:10:31.784Z,86.70
2022-08-10T11:14:26.909Z,88.70
2022-08-10T11:15:59.909Z,84.30
2022-08-10T11:18:52.082Z,87.30
2022-08-10T11:21:31.434Z,84.90
2022-08-10T11:24:47.893Z,86.50
2022-08-10T11:27:01.071Z,84.90
2022-08-10T11:29:43.915Z,83.90
2022-08-10T11:32:37.829Z,86.30
2022-08-10T11:35:19.685Z,83.70
2022-08-10T11:38:30.962Z,79.90
2022-08-10T11:42:08.736Z,81.70
2022-08-10T11:44:29.623Z,83.40
2022-08-10T11:47:04.714Z,82.80
2022-08-10T11:49:37.617Z,83.20
2022-08-10T11:52:10.609Z,81.60
2022-08-10T11:54:50.741Z,77.50
2022-08-10T11:57:18.444Z,78.90
2022-08-10T12:00:11.142Z,81.10
2022-08-10T12:02:42.053Z,83.00
2022-08-10T12:05:15.416Z,77.80
2022-08-10T12:10:02.982Z,77.70
2022-08-10T12:10:41.058Z,73.70
2022-08-10T12:13:21.157Z,69.60
2022-08-10T12:16:07.718Z,67.80
2022-08-10T12:18:42.844Z,68.20
2022-08-10T12:21:21.671Z,66.30
2022-08-10T12:24:02.632Z,66.60
2022-08-10T12:26:56.263Z,66.50
2022-08-10T12:29:53.813Z,67.10
2022-08-10T12:32:39.419Z,67.60
2022-08-10T12:35:26.558Z,63.90
2022-08-10T12:38:13.382Z,64.00
2022-08-10T12:40:47.232Z,61.90
2022-08-10T12:44:07.867Z,62.50
2022-08-10T12:46:35.060Z,66.50
2022-08-10T12:49:23.086Z,58.10
2022-08-10T12:52:15.665Z,59.90
2022-08-10T12:54:43.618Z,60.90
2022-08-10T12:57:13.076Z,60.60
2022-08-10T12:59:53.135Z,60.20
2022-08-10T13:02:36.208Z,61.50
2022-08-10T13:05:07.195Z,58.50
2022-08-10T13:08:04.075Z,61.00
2022-08-10T13:10:23.488Z,58.70
2022-08-10T13:12:54.448Z,59.30
2022-08-10T13:15:50.372Z,58.70
2022-08-10T13:18:26.079Z,58.90
2022-08-10T13:20:55.146Z,58.20
2022-08-10T13:23:26.696Z,57.90
2022-08-10T13:25:57.718Z,56.50
2022-08-10T13:28:43.336Z,55.40
2022-08-10T13:31:17.758Z,55.90
2022-08-10T13:34:39.593Z,56.00
2022-08-10T13:36:38.640Z,54.10
2022-08-10T13:39:07.024Z,53.60
2022-08-10T13:41:42.332Z,53.30
2022-08-10T13:44:12.699Z,53.30
2022-08-10T13:46:42.179Z,54.50
2022-08-10T13:49:11.114Z,50.70
2022-08-10T13:51:54.070Z,50.40
2022-08-10T13:54:28.049Z,50.90
2022-08-10T13:56:56.665Z,49.20
2022-08-10T14:00:33.970Z,49.30
2022-08-10T14:02:38.000Z,49.20
2022-08-10T14:05:07.045Z,48.90
2022-08-10T14:07:38.250Z,47.50
2022-08-10T14:11:08.379Z,49.10
2022-08-10T14:13:09.941Z,48.10
2022-08-10T14:15:39.019Z,47.20
2022-08-10T14:18:08.693Z,48.30
2022-08-10T14:20:37.282Z,46.70
2022-08-10T14:23:15.318Z,45.90
2022-08-10T14:26:08.517Z,45.20
2022-08-10T14:28:48.800Z,43.80
2022-08-10T14:31:22.477Z,44.00
2022-08-10T14:33:55.430Z,42.10
2022-08-10T14:36:48.094Z,41.70
2022-08-10T14:39:28.264Z,39.80
2022-08-10T14:42:04.286Z,38.40
2022-08-10T14:44:45.056Z,36.70
2022-08-10T14:47:52.840Z,36.10
2022-08-10T14:50:02.053Z,35.60
2022-08-10T14:52:30.866Z,33.90
2022-08-10T14:58:19.318Z,32.60
2022-08-10T15:00:31.487Z,31.50
2022-08-10T15:03:16.057Z,31.30
2022-08-10T15:05:54.313Z,33.10
2022-08-10T15:08:27.693Z,31.90
2022-08-10T15:13:34.274Z,30.80
2022-08-10T15:16:13.548Z,30.00
2022-08-10T15:18:57.965Z,30.40
2022-08-10T15:21:42.195Z,30.10
2022-08-10T15:24:36.651Z,31.00
2022-08-10T15:27:08.660Z,31.00
2022-08-10T15:29:57.745Z,29.80
2022-08-10T15:32:49.364Z,30.00
2022-08-10T15:35:36.901Z,29.50
2022-08-10T15:38:06.886Z,29.30
2022-08-10T15:40:49.660Z,29.90
2022-08-10T15:43:20.708Z,29.80
2022-08-10T15:46:20.410Z,29.70
2022-08-10T15:48:55.244Z,29.70
2022-08-10T15:51:54.361Z,29.50
2022-08-10T15:54:33.233Z,30.30
2022-08-10T15:57:06.018Z,29.30
2022-08-10T15:59:41.561Z,28.20
2022-08-10T16:02:17.692Z,28.30
2022-08-10T16:04:57.938Z,29.60
2022-08-10T16:07:57.506Z,28.00
2022-08-10T16:10:30.827Z,28.40
2022-08-10T16:13:01.185Z,29.20
2022-08-10T16:15:30.226Z,29.20
2022-08-10T16:18:02.932Z,29.80
2022-08-10T16:20:55.072Z,29.80
2022-08-10T16:23:35.414Z,28.80
2022-08-10T16:26:14.985Z,28.60
2022-08-10T16:28:54.665Z,28.70
2022-08-10T16:31:24.226Z,29.10
2022-08-10T16:33:57.798Z,28.60
2022-08-10T16:36:38.727Z,28.70
2022-08-10T16:39:07.932Z,29.10
2022-08-10T16:42:04.369Z,29.00
2022-08-10T16:44:51.073Z,29.10
2022-08-10T16:47:26.708Z,30.10
2022-08-10T16:49:58.077Z,30.00
2022-08-10T16:52:29.267Z,30.40
2022-08-10T16:55:17.204Z,30.60
2022-08-10T16:57:51.221Z,30.90
2022-08-10T17:00:22.404Z,31.00
2022-08-10T17:04:05.481Z,31.20
2022-08-10T17:06:11.489Z,30.70
2022-08-10T17:08:48.355Z,30.70
2022-08-10T17:11:18.474Z,31.30
2022-08-10T17:13:45.687Z,31.00
2022-08-10T17:16:14.356Z,31.10
2022-08-10T17:18:45.131Z,30.80
2022-08-10T17:21:25.605Z,31.20
2022-08-10T17:23:54.687Z,31.20
2022-08-10T17:26:35.570Z,31.20
2022-08-10T17:29:57.816Z,30.90
2022-08-10T17:32:20.589Z,30.80
2022-08-10T17:34:52.775Z,31.30
2022-08-10T17:37:22.305Z,31.20
2022-08-10T17:40:05.629Z,30.50
2022-08-10T17:42:35.079Z,30.40
2022-08-10T17:45:04.166Z,30.40
2022-08-10T17:47:32.470Z,30.40
2022-08-10T17:50:00.741Z,30.40
2022-08-10T17:52:33.014Z,30.80
2022-08-10T17:55:09.842Z,31.10
2022-08-10T17:57:39.304Z,31.30
2022-08-10T18:00:14.691Z,31.90
2022-08-10T18:02:46.276Z,33.30
2022-08-10T18:05:14.548Z,35.50
2022-08-10T18:07:47.685Z,36.90
2022-08-10T18:10:18.235Z,37.90
2022-08-10T18:12:48.791Z,38.80
2022-08-10T18:15:23.233Z,39.50
2022-08-10T18:17:59.126Z,40.30
2022-08-10T18:20:35.592Z,41.40
2022-08-10T18:23:03.516Z,42.00
2022-08-10T18:25:33.417Z,42.80
2022-08-10T18:28:05.480Z,43.60
2022-08-10T18:30:45.133Z,44.80
2022-08-10T18:33:14.060Z,45.50
2022-08-10T18:35:43.645Z,45.80
2022-08-10T18:38:12.967Z,46.50
2022-08-10T18:40:43.656Z,47.30
2022-08-10T18:44:06.977Z,48.20
2022-08-10T18:46:01.154Z,49.10
2022-08-10T18:48:38.597Z,49.80
2022-08-10T18:51:06.629Z,49.70
2022-08-10T18:53:48.138Z,50.40
2022-08-10T18:56:20.947Z,51.40
2022-08-10T18:58:50.713Z,52.00
2022-08-10T19:01:32.319Z,52.70
2022-08-10T19:04:21.163Z,53.30
2022-08-10T19:07:02.847Z,54.40
2022-08-10T19:09:53.518Z,55.40
2022-08-10T19:12:30.362Z,56.60
2022-08-10T19:15:18.197Z,58.00
2022-08-10T19:18:11.471Z,58.80
2022-08-10T19:20:46.917Z,60.70
2022-08-10T19:23:51.102Z,62.70
2022-08-10T19:26:46.435Z,63.10
2022-08-10T19:30:08.712Z,65.50
2022-08-10T19:32:27.303Z,66.70
2022-08-10T19:35:08.583Z,69.20
2022-08-10T19:38:00.506Z,69.80
2022-08-10T19:40:49.385Z,72.10
2022-08-10T19:44:00.230Z,73.10
2022-08-10T19:46:42.305Z,74.70
2022-08-10T19:49:39.789Z,75.60
2022-08-10T19:52:30.194Z,77.90
2022-08-10T19:55:27.634Z,78.90
2022-08-10T19:58:18.965Z,80.10
2022-08-10T20:01:01.638Z,82.10
2022-08-10T20:03:41.962Z,83.90
2022-08-10T20:06:31.529Z,85.00
2022-08-10T20:09:08.618Z,86.10
2022-08-10T20:11:45.465Z,88.00
2022-08-10T20:14:34.432Z,89.10
2022-08-10T20:17:05.040Z,88.90
2022-08-10T20:19:52.460Z,89.80
2022-08-10T20:22:28.682Z,90.30
2022-08-10T20:25:20.838Z,90.80
2022-08-10T20:28:05.091Z,91.10
2022-08-10T20:30:33.016Z,91.50
2022-08-10T20:33:06.524Z,92.30
2022-08-10T20:36:08.670Z,92.70
2022-08-10T20:38:50.261Z,93.10
2022-08-10T20:42:00.475Z,93.60
2022-08-10T20:44:50.571Z,94.30
2022-08-10T20:47:30.867Z,94.80
2022-08-10T20:50:30.688Z,95.50
2022-08-10T20:53:02.297Z,96.00
2022-08-10T20:55:46.741Z,96.20
2022-08-10T20:58:41.900Z,96.70
2022-08-10T21:01:17.021Z,97.20
2022-08-10T21:04:07.682Z,97.90
2022-08-10T21:07:28.456Z,98.50
2022-08-10T21:10:21.591Z,99.20
2022-08-10T21:13:06.990Z,99.50
2022-08-10T21:15:55.838Z,99.90
2022-08-10T21:18:44.346Z,99.90
2022-08-10T21:22:05.474Z,99.90
2022-08-10T21:25:08.076Z,99.90
2022-08-10T21:27:49.973Z,99.90
2022-08-10T21:30:51.776Z,99.90
2022-08-10T21:33:53.326Z,99.90
2022-08-10T21:36:34.939Z,99.90
2022-08-10T21:39:42.779Z,99.90
2022-08-10T21:42:47.261Z,99.90
2022-08-10T21:45:58.104Z,99.90
2022-08-10T21:48:57.854Z,99.90
2022-08-10T21:52:01.657Z,99.90
2022-08-10T21:54:58.231Z,99.90
2022-08-10T21:57:59.074Z,99.90
2022-08-10T22:00:44.952Z,99.90
2022-08-10T22:03:39.686Z,99.90
2022-08-10T22:06:28.044Z,99.90
2022-08-10T22:09:25.962Z,99.90
2022-08-10T22:12:25.070Z,99.90
2022-08-10T22:15:42.536Z,99.90
2022-08-10T22:18:35.715Z,99.90
2022-08-10T22:21:49.423Z,99.90
2022-08-10T22:24:52.485Z,99.90
2022-08-10T22:27:54.501Z,99.90
2022-08-10T22:31:14.977Z,99.90
2022-08-10T22:33:54.200Z,99.90
2022-08-10T22:37:14.755Z,99.90
2022-08-10T22:40:35.584Z,99.90
2022-08-10T22:43:35.815Z,99.90
2022-08-10T22:46:28.714Z,99.90
2022-08-10T22:49:01.718Z,99.90
2022-08-10T22:51:31.716Z,99.90
2022-08-10T22:54:30.374Z,99.90
2022-08-10T22:57:21.315Z,99.90
2022-08-10T22:59:49.788Z,99.90
2022-08-10T23:02:33.540Z,99.90
2022-08-10T23:05:07.041Z,99.90
2022-08-10T23:07:41.178Z,99.90
2022-08-10T23:10:11.846Z,99.90
2022-08-10T23:12:50.147Z,99.90
2022-08-10T23:15:48.596Z,99.90
2022-08-10T23:18:45.066Z,99.90
2022-08-10T23:21:15.229Z,99.90
2022-08-10T23:23:44.547Z,99.90
2022-08-10T23:26:15.104Z,99.90
2022-08-10T23:28:58.853Z,99.90
2022-08-10T23:31:58.368Z,99.90
2022-08-10T23:34:25.110Z,99.90
2022-08-10T23:36:54.144Z,99.90
2022-08-10T23:39:29.750Z,99.90
2022-08-10T23:42:07.922Z,99.90
2022-08-10T23:44:43.424Z,99.90
2022-08-10T23:47:14.242Z,99.90
2022-08-10T23:49:43.088Z,99.90
2022-08-10T23:52:18.377Z,99.90
2022-08-10T23:54:49.736Z,99.90
2022-08-10T23:57:19.900Z,99.90
2022-08-10T23:59:59.785Z,99.90
